Arzamas, Russia
Current Conditions -  °F | °C
As of 9:30 AM on Saturday 25 Oct 2014 (Local Time) from UWGG Reporting Station
Clear Clear  
Wind Chill:   Ceiling: Unl
Heat Index: 16°   Visibility: 6mi
Dew Point: 10°   Wind: 4mph
Humidity: 79%   Direction: 310°NW
Pressure: 30.59"   Gusts: NA
Location:  55.38°N, 43.82°E
Report Text: UWGG 250630Z 31002MPS 9000 SKC M09/M12 Q1036 NOSIG 36410145 RMKQFE770
Loading
Personal Weather Stations






























Interactive Weather Map New forecast layout! Learn more

10-Day Weather Forecast

Advertisements
Track Severe Weather on mobile